Schoenchen, Kansas
Current Conditions -  °F | °C
As of 8:15 AM on Saturday 20 Dec 2014 (Local Time) from KHYS Reporting Station
Clear Clear  
Wind Chill: 19°   Ceiling: Unl
Heat Index: 25°   Visibility: 3mi
Dew Point: 16°   Wind: 5mph
Humidity: 69%   Direction: 220°SW
Pressure: 30.09"   Gusts: NA
Location:  38.71°N, 99.33°W
Report Text: KHYS 201415Z AUTO 22004KT 3SM CLR M04/M09 A3009 RMK AO1
Loading
Personal Weather Stations






























Interactive Weather Map New forecast layout! Learn more

10-Day Weather Forecast

Advertisements
Track Severe Weather on mobile